sensor_id;sensor_type;location;lat;lon;timestamp;temperature;humidity
36586;DHT22;22591;48.314;11.562;2022-11-20T00:01:21;6.30;99.90
36586;DHT22;22591;48.314;11.562;2022-11-20T00:03:47;6.30;99.90
36586;DHT22;22591;48.314;11.562;2022-11-20T00:06:15;6.40;99.90
36586;DHT22;22591;48.314;11.562;2022-11-20T00:08:41;6.30;99.90
36586;DHT22;22591;48.314;11.562;2022-11-20T00:11:09;6.30;99.90
36586;DHT22;22591;48.314;11.562;2022-11-20T00:13:35;6.40;99.90
36586;DHT22;22591;48.314;11.562;2022-11-20T00:16:02;6.30;99.90
36586;DHT22;22591;48.314;11.562;2022-11-20T00:18:28;6.20;99.90
36586;DHT22;22591;48.314;11.562;2022-11-20T00:21:07;6.30;99.90
36586;DHT22;22591;48.314;11.562;2022-11-20T00:23:33;6.30;99.90
36586;DHT22;22591;48.314;11.562;2022-11-20T00:26:04;6.20;99.90
36586;DHT22;22591;48.314;11.562;2022-11-20T00:28:30;6.20;99.90
36586;DHT22;22591;48.314;11.562;2022-11-20T00:31:14;6.20;99.90
36586;DHT22;22591;48.314;11.562;2022-11-20T00:33:41;6.20;99.90
36586;DHT22;22591;48.314;11.562;2022-11-20T00:36:10;6.10;99.90
36586;DHT22;22591;48.314;11.562;2022-11-20T00:38:36;6.10;99.90
36586;DHT22;22591;48.314;11.562;2022-11-20T00:41:05;6.10;99.90
36586;DHT22;22591;48.314;11.562;2022-11-20T00:43:31;6.00;99.90
36586;DHT22;22591;48.314;11.562;2022-11-20T00:46:08;6.00;99.90
36586;DHT22;22591;48.314;11.562;2022-11-20T00:48:34;6.00;99.90
36586;DHT22;22591;48.314;11.562;2022-11-20T00:51:00;6.10;99.90
36586;DHT22;22591;48.314;11.562;2022-11-20T00:53:26;6.00;99.90
36586;DHT22;22591;48.314;11.562;2022-11-20T00:55:59;6.00;99.90
36586;DHT22;22591;48.314;11.562;2022-11-20T00:58:34;6.00;99.90
36586;DHT22;22591;48.314;11.562;2022-11-20T01:01:08;6.00;99.90
36586;DHT22;22591;48.314;11.562;2022-11-20T01:03:35;6.00;99.90
36586;DHT22;22591;48.314;11.562;2022-11-20T01:06:10;5.90;99.90
36586;DHT22;22591;48.314;11.562;2022-11-20T01:08:36;5.90;99.90
36586;DHT22;22591;48.314;11.562;2022-11-20T01:11:07;5.90;99.90
36586;DHT22;22591;48.314;11.562;2022-11-20T01:13:34;5.90;99.90
36586;DHT22;22591;48.314;11.562;2022-11-20T01:16:08;6.00;99.90
36586;DHT22;22591;48.314;11.562;2022-11-20T01:18:34;5.90;99.90
36586;DHT22;22591;48.314;11.562;2022-11-20T01:21:05;6.00;99.90
36586;DHT22;22591;48.314;11.562;2022-11-20T01:23:32;6.00;99.90
36586;DHT22;22591;48.314;11.562;2022-11-20T01:26:00;6.00;99.90
36586;DHT22;22591;48.314;11.562;2022-11-20T01:28:26;5.90;99.90
36586;DHT22;22591;48.314;11.562;2022-11-20T01:30:52;5.80;99.90
36586;DHT22;22591;48.314;11.562;2022-11-20T01:33:17;5.80;99.90
36586;DHT22;22591;48.314;11.562;2022-11-20T01:35:43;5.90;99.90
36586;DHT22;22591;48.314;11.562;2022-11-20T01:38:08;5.90;99.90
36586;DHT22;22591;48.314;11.562;2022-11-20T01:40:34;5.90;99.90
36586;DHT22;22591;48.314;11.562;2022-11-20T01:43:19;5.90;99.90
36586;DHT22;22591;48.314;11.562;2022-11-20T01:51:01;5.80;99.90
36586;DHT22;22591;48.314;11.562;2022-11-20T01:53:32;5.80;99.90
36586;DHT22;22591;48.314;11.562;2022-11-20T01:56:00;5.90;99.90
36586;DHT22;22591;48.314;11.562;2022-11-20T01:58:31;5.80;99.90
36586;DHT22;22591;48.314;11.562;2022-11-20T02:00:57;5.80;99.90
36586;DHT22;22591;48.314;11.562;2022-11-20T02:03:23;5.80;99.90
36586;DHT22;22591;48.314;11.562;2022-11-20T02:05:55;5.80;99.90
36586;DHT22;22591;48.314;11.562;2022-11-20T02:08:23;5.90;99.90
36586;DHT22;22591;48.314;11.562;2022-11-20T02:10:49;5.80;99.90
36586;DHT22;22591;48.314;11.562;2022-11-20T02:13:15;5.80;99.90
36586;DHT22;22591;48.314;11.562;2022-11-20T02:16:00;5.80;99.90
36586;DHT22;22591;48.314;11.562;2022-11-20T02:18:26;5.80;99.90
36586;DHT22;22591;48.314;11.562;2022-11-20T02:20:58;5.80;99.90
36586;DHT22;22591;48.314;11.562;2022-11-20T02:23:27;5.80;99.90
36586;DHT22;22591;48.314;11.562;2022-11-20T02:25:57;5.70;99.90
36586;DHT22;22591;48.314;11.562;2022-11-20T02:28:23;5.80;99.90
36586;DHT22;22591;48.314;11.562;2022-11-20T02:30:49;5.80;99.90
36586;DHT22;22591;48.314;11.562;2022-11-20T02:33:14;5.80;99.90
36586;DHT22;22591;48.314;11.562;2022-11-20T02:35:43;5.80;99.90
36586;DHT22;22591;48.314;11.562;2022-11-20T02:38:09;5.90;99.90
36586;DHT22;22591;48.314;11.562;2022-11-20T02:40:35;5.80;99.90
36586;DHT22;22591;48.314;11.562;2022-11-20T02:43:00;5.80;99.90
36586;DHT22;22591;48.314;11.562;2022-11-20T02:45:26;5.80;99.90
36586;DHT22;22591;48.314;11.562;2022-11-20T02:47:51;5.80;99.90
36586;DHT22;22591;48.314;11.562;2022-11-20T02:50:17;5.90;99.90
36586;DHT22;22591;48.314;11.562;2022-11-20T02:52:43;5.90;99.90
36586;DHT22;22591;48.314;11.562;2022-11-20T02:55:09;5.90;99.90
36586;DHT22;22591;48.314;11.562;2022-11-20T02:57:34;5.80;99.90
36586;DHT22;22591;48.314;11.562;2022-11-20T03:00:00;5.90;99.90
36586;DHT22;22591;48.314;11.562;2022-11-20T03:02:27;5.80;99.90
36586;DHT22;22591;48.314;11.562;2022-11-20T03:04:54;5.80;99.90
36586;DHT22;22591;48.314;11.562;2022-11-20T03:07:20;5.80;99.90
36586;DHT22;22591;48.314;11.562;2022-11-20T03:09:45;5.80;99.90
36586;DHT22;22591;48.314;11.562;2022-11-20T03:12:11;5.80;99.90
36586;DHT22;22591;48.314;11.562;2022-11-20T03:14:36;5.90;99.90
36586;DHT22;22591;48.314;11.562;2022-11-20T03:17:02;5.80;99.90
36586;DHT22;22591;48.314;11.562;2022-11-20T03:19:27;5.80;99.90
36586;DHT22;22591;48.314;11.562;2022-11-20T03:21:53;5.80;99.90
36586;DHT22;22591;48.314;11.562;2022-11-20T03:24:18;5.70;99.90
36586;DHT22;22591;48.314;11.562;2022-11-20T03:26:44;5.70;99.90
36586;DHT22;22591;48.314;11.562;2022-11-20T03:29:09;5.70;99.90
36586;DHT22;22591;48.314;11.562;2022-11-20T03:31:37;5.80;99.90
36586;DHT22;22591;48.314;11.562;2022-11-20T03:34:05;5.90;99.90
36586;DHT22;22591;48.314;11.562;2022-11-20T03:36:31;5.90;99.90
36586;DHT22;22591;48.314;11.562;2022-11-20T03:38:57;5.80;99.90
36586;DHT22;22591;48.314;11.562;2022-11-20T03:41:25;5.90;99.90
36586;DHT22;22591;48.314;11.562;2022-11-20T03:43:55;5.90;99.90
36586;DHT22;22591;48.314;11.562;2022-11-20T03:46:22;5.90;99.90
36586;DHT22;22591;48.314;11.562;2022-11-20T03:48:48;5.90;99.90
36586;DHT22;22591;48.314;11.562;2022-11-20T03:51:16;5.90;99.90
36586;DHT22;22591;48.314;11.562;2022-11-20T03:53:43;5.90;99.90
36586;DHT22;22591;48.314;11.562;2022-11-20T03:56:10;5.90;99.90
36586;DHT22;22591;48.314;11.562;2022-11-20T03:58:37;5.80;99.90
36586;DHT22;22591;48.314;11.562;2022-11-20T04:01:13;5.90;99.90
36586;DHT22;22591;48.314;11.562;2022-11-20T04:03:40;5.90;99.90
36586;DHT22;22591;48.314;11.562;2022-11-20T04:06:11;5.90;99.90
36586;DHT22;22591;48.314;11.562;2022-11-20T04:08:37;5.90;99.90
36586;DHT22;22591;48.314;11.562;2022-11-20T04:11:10;5.90;99.90
36586;DHT22;22591;48.314;11.562;2022-11-20T04:13:36;6.00;99.90
36586;DHT22;22591;48.314;11.562;2022-11-20T04:16:02;5.90;99.90
36586;DHT22;22591;48.314;11.562;2022-11-20T04:18:28;5.90;99.90
36586;DHT22;22591;48.314;11.562;2022-11-20T04:20:53;5.90;99.90
36586;DHT22;22591;48.314;11.562;2022-11-20T04:23:19;5.90;99.90
36586;DHT22;22591;48.314;11.562;2022-11-20T04:25:44;5.90;99.90
36586;DHT22;22591;48.314;11.562;2022-11-20T04:28:10;5.90;99.90
36586;DHT22;22591;48.314;11.562;2022-11-20T04:30:35;5.90;99.90
36586;DHT22;22591;48.314;11.562;2022-11-20T04:33:01;5.90;99.90
36586;DHT22;22591;48.314;11.562;2022-11-20T04:35:26;5.90;99.90
36586;DHT22;22591;48.314;11.562;2022-11-20T04:37:52;5.90;99.90
36586;DHT22;22591;48.314;11.562;2022-11-20T04:40:17;5.80;99.90
36586;DHT22;22591;48.314;11.562;2022-11-20T04:42:43;5.80;99.90
36586;DHT22;22591;48.314;11.562;2022-11-20T04:45:09;5.90;99.90
36586;DHT22;22591;48.314;11.562;2022-11-20T04:47:34;5.90;99.90
36586;DHT22;22591;48.314;11.562;2022-11-20T04:50:00;5.90;99.90
36586;DHT22;22591;48.314;11.562;2022-11-20T04:52:25;5.90;99.90
36586;DHT22;22591;48.314;11.562;2022-11-20T04:54:51;5.90;99.90
36586;DHT22;22591;48.314;11.562;2022-11-20T04:57:19;5.90;99.90
36586;DHT22;22591;48.314;11.562;2022-11-20T04:59:44;5.90;99.90
36586;DHT22;22591;48.314;11.562;2022-11-20T05:02:11;5.90;99.90
36586;DHT22;22591;48.314;11.562;2022-11-20T05:04:37;6.00;99.90
36586;DHT22;22591;48.314;11.562;2022-11-20T05:07:02;6.00;99.90
36586;DHT22;22591;48.314;11.562;2022-11-20T05:09:28;5.90;99.90
36586;DHT22;22591;48.314;11.562;2022-11-20T05:11:53;5.90;99.90
36586;DHT22;22591;48.314;11.562;2022-11-20T05:14:19;5.80;99.90
36586;DHT22;22591;48.314;11.562;2022-11-20T05:16:44;5.90;99.90
36586;DHT22;22591;48.314;11.562;2022-11-20T05:19:10;5.80;99.90
36586;DHT22;22591;48.314;11.562;2022-11-20T05:21:35;5.90;99.90
36586;DHT22;22591;48.314;11.562;2022-11-20T05:24:01;5.90;99.90
36586;DHT22;22591;48.314;11.562;2022-11-20T05:26:27;5.80;99.90
36586;DHT22;22591;48.314;11.562;2022-11-20T05:28:52;5.70;99.90
36586;DHT22;22591;48.314;11.562;2022-11-20T05:31:20;5.70;99.90
36586;DHT22;22591;48.314;11.562;2022-11-20T05:33:46;5.70;99.90
36586;DHT22;22591;48.314;11.562;2022-11-20T05:36:14;5.70;99.90
36586;DHT22;22591;48.314;11.562;2022-11-20T05:38:40;5.70;99.90
36586;DHT22;22591;48.314;11.562;2022-11-20T05:41:19;5.70;99.90
36586;DHT22;22591;48.314;11.562;2022-11-20T05:43:47;5.70;99.90
36586;DHT22;22591;48.314;11.562;2022-11-20T05:46:15;5.70;99.90
36586;DHT22;22591;48.314;11.562;2022-11-20T05:48:42;5.60;99.90
36586;DHT22;22591;48.314;11.562;2022-11-20T05:51:10;5.60;99.90
36586;DHT22;22591;48.314;11.562;2022-11-20T05:53:36;5.60;99.90
36586;DHT22;22591;48.314;11.562;2022-11-20T05:56:07;5.50;99.90
36586;DHT22;22591;48.314;11.562;2022-11-20T05:58:36;5.40;99.90
36586;DHT22;22591;48.314;11.562;2022-11-20T06:01:12;5.40;99.90
36586;DHT22;22591;48.314;11.562;2022-11-20T06:03:39;5.50;99.90
36586;DHT22;22591;48.314;11.562;2022-11-20T06:06:05;5.50;99.90
36586;DHT22;22591;48.314;11.562;2022-11-20T06:08:32;5.40;99.90
36586;DHT22;22591;48.314;11.562;2022-11-20T06:10:58;5.30;99.90
36586;DHT22;22591;48.314;11.562;2022-11-20T06:13:24;5.30;99.90
36586;DHT22;22591;48.314;11.562;2022-11-20T06:15:50;5.30;99.90
36586;DHT22;22591;48.314;11.562;2022-11-20T06:18:16;5.30;99.90
36586;DHT22;22591;48.314;11.562;2022-11-20T06:20:42;5.30;99.90
36586;DHT22;22591;48.314;11.562;2022-11-20T06:23:07;5.30;99.90
36586;DHT22;22591;48.314;11.562;2022-11-20T06:25:33;5.30;99.90
36586;DHT22;22591;48.314;11.562;2022-11-20T06:28:00;5.40;99.90
36586;DHT22;22591;48.314;11.562;2022-11-20T06:30:26;5.50;99.90
36586;DHT22;22591;48.314;11.562;2022-11-20T06:32:51;5.60;99.90
36586;DHT22;22591;48.314;11.562;2022-11-20T06:35:17;5.60;99.90
36586;DHT22;22591;48.314;11.562;2022-11-20T06:37:43;5.70;99.90
36586;DHT22;22591;48.314;11.562;2022-11-20T06:40:09;5.70;99.90
36586;DHT22;22591;48.314;11.562;2022-11-20T06:42:34;5.80;99.90
36586;DHT22;22591;48.314;11.562;2022-11-20T06:45:00;5.80;99.90
36586;DHT22;22591;48.314;11.562;2022-11-20T06:47:25;5.80;99.90
36586;DHT22;22591;48.314;11.562;2022-11-20T06:49:51;5.90;99.90
36586;DHT22;22591;48.314;11.562;2022-11-20T06:52:16;5.90;99.90
36586;DHT22;22591;48.314;11.562;2022-11-20T06:54:42;5.90;99.90
36586;DHT22;22591;48.314;11.562;2022-11-20T06:57:07;5.90;99.90
36586;DHT22;22591;48.314;11.562;2022-11-20T06:59:33;5.80;99.90
36586;DHT22;22591;48.314;11.562;2022-11-20T07:01:59;5.90;99.90
36586;DHT22;22591;48.314;11.562;2022-11-20T07:04:24;6.00;99.90
36586;DHT22;22591;48.314;11.562;2022-11-20T07:06:50;6.00;99.90
36586;DHT22;22591;48.314;11.562;2022-11-20T07:09:15;6.00;99.90
36586;DHT22;22591;48.314;11.562;2022-11-20T07:11:41;6.10;99.90
36586;DHT22;22591;48.314;11.562;2022-11-20T07:14:07;6.00;99.90
36586;DHT22;22591;48.314;11.562;2022-11-20T07:16:32;6.10;99.90
36586;DHT22;22591;48.314;11.562;2022-11-20T07:18:58;6.20;99.90
36586;DHT22;22591;48.314;11.562;2022-11-20T07:21:23;6.20;99.90
36586;DHT22;22591;48.314;11.562;2022-11-20T07:23:49;6.20;99.90
36586;DHT22;22591;48.314;11.562;2022-11-20T07:26:14;6.20;99.90
36586;DHT22;22591;48.314;11.562;2022-11-20T07:28:43;6.20;99.90
36586;DHT22;22591;48.314;11.562;2022-11-20T07:31:09;6.20;99.90
36586;DHT22;22591;48.314;11.562;2022-11-20T07:33:35;6.20;99.90
36586;DHT22;22591;48.314;11.562;2022-11-20T07:36:01;6.20;99.90
36586;DHT22;22591;48.314;11.562;2022-11-20T07:38:26;6.20;99.90
36586;DHT22;22591;48.314;11.562;2022-11-20T07:40:56;6.20;99.90
36586;DHT22;22591;48.314;11.562;2022-11-20T07:43:23;6.20;99.90
36586;DHT22;22591;48.314;11.562;2022-11-20T07:45:48;6.20;99.90
36586;DHT22;22591;48.314;11.562;2022-11-20T07:48:14;6.20;99.90
36586;DHT22;22591;48.314;11.562;2022-11-20T07:50:40;6.30;99.90
36586;DHT22;22591;48.314;11.562;2022-11-20T07:53:05;6.30;99.90
36586;DHT22;22591;48.314;11.562;2022-11-20T07:55:32;6.40;99.90
36586;DHT22;22591;48.314;11.562;2022-11-20T07:57:58;6.50;99.90
36586;DHT22;22591;48.314;11.562;2022-11-20T08:00:25;6.40;99.90
36586;DHT22;22591;48.314;11.562;2022-11-20T08:02:50;6.40;99.90
36586;DHT22;22591;48.314;11.562;2022-11-20T08:05:16;6.40;99.90
36586;DHT22;22591;48.314;11.562;2022-11-20T08:07:43;6.50;99.90
36586;DHT22;22591;48.314;11.562;2022-11-20T08:10:12;6.60;99.90
36586;DHT22;22591;48.314;11.562;2022-11-20T08:12:48;6.60;99.90
36586;DHT22;22591;48.314;11.562;2022-11-20T08:15:32;6.60;99.90
36586;DHT22;22591;48.314;11.562;2022-11-20T08:18:00;6.70;99.90
36586;DHT22;22591;48.314;11.562;2022-11-20T08:20:25;6.60;99.90
36586;DHT22;22591;48.314;11.562;2022-11-20T08:22:51;6.60;99.90
36586;DHT22;22591;48.314;11.562;2022-11-20T08:25:16;6.70;99.90
36586;DHT22;22591;48.314;11.562;2022-11-20T08:27:42;6.70;99.90
36586;DHT22;22591;48.314;11.562;2022-11-20T08:30:08;6.70;99.90
36586;DHT22;22591;48.314;11.562;2022-11-20T08:32:34;6.70;99.90
36586;DHT22;22591;48.314;11.562;2022-11-20T08:35:01;6.70;99.90
36586;DHT22;22591;48.314;11.562;2022-11-20T08:37:26;6.80;99.90
36586;DHT22;22591;48.314;11.562;2022-11-20T08:39:52;6.90;99.90
36586;DHT22;22591;48.314;11.562;2022-11-20T08:42:19;7.00;99.90
36586;DHT22;22591;48.314;11.562;2022-11-20T08:44:44;7.00;99.90
36586;DHT22;22591;48.314;11.562;2022-11-20T08:47:10;7.00;99.90
36586;DHT22;22591;48.314;11.562;2022-11-20T08:49:35;7.00;99.90
36586;DHT22;22591;48.314;11.562;2022-11-20T08:52:01;7.10;99.90
36586;DHT22;22591;48.314;11.562;2022-11-20T08:54:26;7.10;99.90
36586;DHT22;22591;48.314;11.562;2022-11-20T08:56:52;7.10;99.90
36586;DHT22;22591;48.314;11.562;2022-11-20T08:59:18;7.10;99.90
36586;DHT22;22591;48.314;11.562;2022-11-20T09:01:43;7.20;99.90
36586;DHT22;22591;48.314;11.562;2022-11-20T09:04:09;7.20;99.90
36586;DHT22;22591;48.314;11.562;2022-11-20T09:06:34;7.30;99.90
36586;DHT22;22591;48.314;11.562;2022-11-20T09:09:00;7.40;99.90
36586;DHT22;22591;48.314;11.562;2022-11-20T09:11:25;7.40;99.90
36586;DHT22;22591;48.314;11.562;2022-11-20T09:13:51;7.40;99.90
36586;DHT22;22591;48.314;11.562;2022-11-20T09:16:16;7.40;99.90
36586;DHT22;22591;48.314;11.562;2022-11-20T09:18:42;7.40;99.90
36586;DHT22;22591;48.314;11.562;2022-11-20T09:21:12;7.50;99.90
36586;DHT22;22591;48.314;11.562;2022-11-20T09:23:39;7.60;99.90
36586;DHT22;22591;48.314;11.562;2022-11-20T09:26:10;7.80;99.90
36586;DHT22;22591;48.314;11.562;2022-11-20T09:28:35;8.00;99.90
36586;DHT22;22591;48.314;11.562;2022-11-20T09:31:05;8.10;99.90
36586;DHT22;22591;48.314;11.562;2022-11-20T09:33:31;8.20;99.90
36586;DHT22;22591;48.314;11.562;2022-11-20T09:35:57;8.30;99.90
36586;DHT22;22591;48.314;11.562;2022-11-20T09:38:23;8.40;99.90
36586;DHT22;22591;48.314;11.562;2022-11-20T09:41:02;8.40;99.90
36586;DHT22;22591;48.314;11.562;2022-11-20T09:43:46;8.40;99.90
36586;DHT22;22591;48.314;11.562;2022-11-20T09:46:53;8.40;99.90
36586;DHT22;22591;48.314;11.562;2022-11-20T09:52:43;8.40;99.90
36586;DHT22;22591;48.314;11.562;2022-11-20T09:55:12;8.30;99.90
36586;DHT22;22591;48.314;11.562;2022-11-20T09:57:45;8.40;99.90
36586;DHT22;22591;48.314;11.562;2022-11-20T10:00:14;8.50;99.90
36586;DHT22;22591;48.314;11.562;2022-11-20T10:10:38;8.70;99.90
36586;DHT22;22591;48.314;11.562;2022-11-20T10:19:02;8.40;99.90
36586;DHT22;22591;48.314;11.562;2022-11-20T10:30:21;9.10;99.90
36586;DHT22;22591;48.314;11.562;2022-11-20T10:32:56;9.40;99.90
36586;DHT22;22591;48.314;11.562;2022-11-20T10:35:27;9.60;99.90
36586;DHT22;22591;48.314;11.562;2022-11-20T10:38:02;9.80;99.90
36586;DHT22;22591;48.314;11.562;2022-11-20T10:40:49;9.90;99.90
36586;DHT22;22591;48.314;11.562;2022-11-20T10:43:17;10.10;99.90
36586;DHT22;22591;48.314;11.562;2022-11-20T10:48:23;10.30;99.90
36586;DHT22;22591;48.314;11.562;2022-11-20T10:53:43;10.20;99.90
36586;DHT22;22591;48.314;11.562;2022-11-20T10:56:25;9.80;99.90
36586;DHT22;22591;48.314;11.562;2022-11-20T11:01:42;9.60;99.90
36586;DHT22;22591;48.314;11.562;2022-11-20T11:04:30;9.60;99.90
36586;DHT22;22591;48.314;11.562;2022-11-20T11:07:12;9.60;99.90
36586;DHT22;22591;48.314;11.562;2022-11-20T11:09:49;9.50;99.90
36586;DHT22;22591;48.314;11.562;2022-11-20T11:12:15;9.30;99.90
36586;DHT22;22591;48.314;11.562;2022-11-20T11:14:59;9.20;99.90
36586;DHT22;22591;48.314;11.562;2022-11-20T11:17:32;9.00;99.90
36586;DHT22;22591;48.314;11.562;2022-11-20T11:22:31;8.90;99.90
36586;DHT22;22591;48.314;11.562;2022-11-20T11:24:58;8.90;99.90
36586;DHT22;22591;48.314;11.562;2022-11-20T11:27:24;9.00;99.90
36586;DHT22;22591;48.314;11.562;2022-11-20T11:29:49;9.10;99.90
36586;DHT22;22591;48.314;11.562;2022-11-20T11:32:26;9.10;99.90
36586;DHT22;22591;48.314;11.562;2022-11-20T11:35:05;9.50;99.90
36586;DHT22;22591;48.314;11.562;2022-11-20T11:37:36;9.80;99.90
36586;DHT22;22591;48.314;11.562;2022-11-20T11:40:04;9.70;99.90
36586;DHT22;22591;48.314;11.562;2022-11-20T11:42:30;9.70;99.90
36586;DHT22;22591;48.314;11.562;2022-11-20T11:44:59;9.60;99.90
36586;DHT22;22591;48.314;11.562;2022-11-20T11:47:38;9.50;99.90
36586;DHT22;22591;48.314;11.562;2022-11-20T11:52:51;9.40;99.90
36586;DHT22;22591;48.314;11.562;2022-11-20T12:00:39;9.20;99.90
36586;DHT22;22591;48.314;11.562;2022-11-20T12:03:27;9.10;99.90
36586;DHT22;22591;48.314;11.562;2022-11-20T12:05:59;8.90;99.90
36586;DHT22;22591;48.314;11.562;2022-11-20T12:08:49;8.70;99.90
36586;DHT22;22591;48.314;11.562;2022-11-20T12:11:17;8.50;99.90
36586;DHT22;22591;48.314;11.562;2022-11-20T12:13:48;8.40;99.90
36586;DHT22;22591;48.314;11.562;2022-11-20T12:16:18;8.10;99.90
36586;DHT22;22591;48.314;11.562;2022-11-20T12:18:50;8.00;99.90
36586;DHT22;22591;48.314;11.562;2022-11-20T12:26:56;8.30;99.90
36586;DHT22;22591;48.314;11.562;2022-11-20T12:32:48;8.30;99.90
36586;DHT22;22591;48.314;11.562;2022-11-20T12:47:51;8.90;99.90
36586;DHT22;22591;48.314;11.562;2022-11-20T12:53:37;8.80;99.90
36586;DHT22;22591;48.314;11.562;2022-11-20T12:59:10;8.70;99.90
36586;DHT22;22591;48.314;11.562;2022-11-20T13:01:50;8.70;99.90
36586;DHT22;22591;48.314;11.562;2022-11-20T13:07:16;8.70;99.90
36586;DHT22;22591;48.314;11.562;2022-11-20T13:09:48;8.70;99.90
36586;DHT22;22591;48.314;11.562;2022-11-20T13:17:57;8.40;99.90
36586;DHT22;22591;48.314;11.562;2022-11-20T13:20:23;8.30;99.90
36586;DHT22;22591;48.314;11.562;2022-11-20T13:22:51;8.20;99.90
36586;DHT22;22591;48.314;11.562;2022-11-20T13:25:37;8.20;99.90
36586;DHT22;22591;48.314;11.562;2022-11-20T13:30:36;8.10;99.90
36586;DHT22;22591;48.314;11.562;2022-11-20T13:33:06;7.90;99.90
36586;DHT22;22591;48.314;11.562;2022-11-20T13:35:35;8.00;99.90
36586;DHT22;22591;48.314;11.562;2022-11-20T13:38:02;8.00;99.90
36586;DHT22;22591;48.314;11.562;2022-11-20T13:40:28;8.00;99.90
36586;DHT22;22591;48.314;11.562;2022-11-20T13:43:23;7.90;99.90
36586;DHT22;22591;48.314;11.562;2022-11-20T13:45:59;7.90;99.90
36586;DHT22;22591;48.314;11.562;2022-11-20T13:48:32;7.90;99.90
36586;DHT22;22591;48.314;11.562;2022-11-20T13:59:05;7.80;99.90
36586;DHT22;22591;48.314;11.562;2022-11-20T14:01:33;7.80;99.90
36586;DHT22;22591;48.314;11.562;2022-11-20T14:04:06;7.80;99.90
36586;DHT22;22591;48.314;11.562;2022-11-20T14:06:41;7.80;99.90
36586;DHT22;22591;48.314;11.562;2022-11-20T14:09:11;7.70;99.90
36586;DHT22;22591;48.314;11.562;2022-11-20T14:11:46;7.80;99.90
36586;DHT22;22591;48.314;11.562;2022-11-20T14:14:23;7.80;99.90
36586;DHT22;22591;48.314;11.562;2022-11-20T14:16:49;7.80;99.90
36586;DHT22;22591;48.314;11.562;2022-11-20T14:21:52;7.70;99.90
36586;DHT22;22591;48.314;11.562;2022-11-20T14:24:19;7.70;99.90
36586;DHT22;22591;48.314;11.562;2022-11-20T14:26:45;7.60;99.90
36586;DHT22;22591;48.314;11.562;2022-11-20T14:29:16;7.60;99.90
36586;DHT22;22591;48.314;11.562;2022-11-20T14:31:44;7.50;99.90
36586;DHT22;22591;48.314;11.562;2022-11-20T14:34:38;7.50;99.90
36586;DHT22;22591;48.314;11.562;2022-11-20T14:37:09;7.60;99.90
36586;DHT22;22591;48.314;11.562;2022-11-20T14:39:40;7.50;99.90
36586;DHT22;22591;48.314;11.562;2022-11-20T14:42:17;7.50;99.90
36586;DHT22;22591;48.314;11.562;2022-11-20T14:44:43;7.50;99.90
36586;DHT22;22591;48.314;11.562;2022-11-20T14:47:12;7.50;99.90
36586;DHT22;22591;48.314;11.562;2022-11-20T14:49:38;7.50;99.90
36586;DHT22;22591;48.314;11.562;2022-11-20T14:52:20;7.60;99.90
36586;DHT22;22591;48.314;11.562;2022-11-20T14:54:51;7.50;99.90
36586;DHT22;22591;48.314;11.562;2022-11-20T14:57:29;7.50;99.90
36586;DHT22;22591;48.314;11.562;2022-11-20T15:00:07;7.50;99.90
36586;DHT22;22591;48.314;11.562;2022-11-20T15:02:33;7.50;99.90
36586;DHT22;22591;48.314;11.562;2022-11-20T15:05:01;7.40;99.90
36586;DHT22;22591;48.314;11.562;2022-11-20T15:07:32;7.40;99.90
36586;DHT22;22591;48.314;11.562;2022-11-20T15:10:04;7.40;99.90
36586;DHT22;22591;48.314;11.562;2022-11-20T15:12:33;7.30;99.90
36586;DHT22;22591;48.314;11.562;2022-11-20T15:15:01;7.20;99.90
36586;DHT22;22591;48.314;11.562;2022-11-20T15:17:26;7.10;99.90
36586;DHT22;22591;48.314;11.562;2022-11-20T15:19:53;7.00;99.90
36586;DHT22;22591;48.314;11.562;2022-11-20T15:22:20;6.90;99.90
36586;DHT22;22591;48.314;11.562;2022-11-20T15:24:45;6.90;99.90
36586;DHT22;22591;48.314;11.562;2022-11-20T15:27:11;6.90;99.90
36586;DHT22;22591;48.314;11.562;2022-11-20T15:29:37;6.90;99.90
36586;DHT22;22591;48.314;11.562;2022-11-20T15:32:03;6.90;99.90
36586;DHT22;22591;48.314;11.562;2022-11-20T15:34:28;6.90;99.90
36586;DHT22;22591;48.314;11.562;2022-11-20T15:36:54;6.90;99.90
36586;DHT22;22591;48.314;11.562;2022-11-20T15:39:20;6.90;99.90
36586;DHT22;22591;48.314;11.562;2022-11-20T15:41:46;6.90;99.90
36586;DHT22;22591;48.314;11.562;2022-11-20T15:44:12;6.80;99.90
36586;DHT22;22591;48.314;11.562;2022-11-20T15:46:40;6.90;99.90
36586;DHT22;22591;48.314;11.562;2022-11-20T15:49:13;6.90;99.90
36586;DHT22;22591;48.314;11.562;2022-11-20T15:51:41;6.80;99.90
36586;DHT22;22591;48.314;11.562;2022-11-20T15:54:19;6.90;99.90
36586;DHT22;22591;48.314;11.562;2022-11-20T15:56:46;6.90;99.90
36586;DHT22;22591;48.314;11.562;2022-11-20T15:59:12;6.90;99.90
36586;DHT22;22591;48.314;11.562;2022-11-20T16:01:39;6.90;99.90
36586;DHT22;22591;48.314;11.562;2022-11-20T16:04:13;6.80;99.90
36586;DHT22;22591;48.314;11.562;2022-11-20T16:06:39;6.80;99.90
36586;DHT22;22591;48.314;11.562;2022-11-20T16:10:39;6.70;99.90
36586;DHT22;22591;48.314;11.562;2022-11-20T16:13:14;6.60;99.90
36586;DHT22;22591;48.314;11.562;2022-11-20T16:16:01;6.50;99.90
36586;DHT22;22591;48.314;11.562;2022-11-20T16:18:29;6.50;99.90
36586;DHT22;22591;48.314;11.562;2022-11-20T16:20:55;6.40;99.90
36586;DHT22;22591;48.314;11.562;2022-11-20T16:23:21;6.40;99.90
36586;DHT22;22591;48.314;11.562;2022-11-20T16:25:47;6.30;99.90
36586;DHT22;22591;48.314;11.562;2022-11-20T16:28:13;6.30;99.90
36586;DHT22;22591;48.314;11.562;2022-11-20T16:30:39;6.20;99.90
36586;DHT22;22591;48.314;11.562;2022-11-20T16:33:12;6.10;99.90
36586;DHT22;22591;48.314;11.562;2022-11-20T16:35:38;5.90;99.90
36586;DHT22;22591;48.314;11.562;2022-11-20T16:38:04;5.90;99.90
36586;DHT22;22591;48.314;11.562;2022-11-20T16:40:29;5.80;99.90
36586;DHT22;22591;48.314;11.562;2022-11-20T16:42:55;5.90;99.90
36586;DHT22;22591;48.314;11.562;2022-11-20T16:45:22;5.90;99.90
36586;DHT22;22591;48.314;11.562;2022-11-20T16:47:47;5.90;99.90
36586;DHT22;22591;48.314;11.562;2022-11-20T16:50:13;6.00;99.90
36586;DHT22;22591;48.314;11.562;2022-11-20T16:52:38;5.90;99.90
36586;DHT22;22591;48.314;11.562;2022-11-20T16:55:04;5.90;99.90
36586;DHT22;22591;48.314;11.562;2022-11-20T16:57:31;5.80;99.90
36586;DHT22;22591;48.314;11.562;2022-11-20T17:00:00;5.70;99.90
36586;DHT22;22591;48.314;11.562;2022-11-20T17:02:25;5.70;99.90
36586;DHT22;22591;48.314;11.562;2022-11-20T17:04:52;5.60;99.90
36586;DHT22;22591;48.314;11.562;2022-11-20T17:07:23;5.50;99.90
36586;DHT22;22591;48.314;11.562;2022-11-20T17:09:52;5.50;99.90
36586;DHT22;22591;48.314;11.562;2022-11-20T17:12:18;5.50;99.90
36586;DHT22;22591;48.314;11.562;2022-11-20T17:14:43;5.40;99.90
36586;DHT22;22591;48.314;11.562;2022-11-20T17:17:09;5.30;99.90
36586;DHT22;22591;48.314;11.562;2022-11-20T17:19:34;5.20;99.90